sensor_id;sensor_type;location;lat;lon;timestamp;P1;durP1;ratioP1;P2;durP2;ratioP2
56541;SDS011;42438;53.174;6.730;2023-06-01T00:00:53;13.93;;;6.28;;
56541;SDS011;42438;53.174;6.730;2023-06-01T00:03:26;11.48;;;6.10;;
56541;SDS011;42438;53.174;6.730;2023-06-01T00:05:59;12.07;;;5.18;;
56541;SDS011;42438;53.174;6.730;2023-06-01T00:08:30;11.40;;;4.82;;
56541;SDS011;42438;53.174;6.730;2023-06-01T00:11:01;10.32;;;4.78;;
56541;SDS011;42438;53.174;6.730;2023-06-01T00:13:31;14.60;;;5.30;;
56541;SDS011;42438;53.174;6.730;2023-06-01T00:16:02;11.45;;;5.65;;
56541;SDS011;42438;53.174;6.730;2023-06-01T00:18:33;10.27;;;4.93;;
56541;SDS011;42438;53.174;6.730;2023-06-01T00:21:03;14.05;;;5.60;;
56541;SDS011;42438;53.174;6.730;2023-06-01T00:23:34;10.45;;;4.38;;
56541;SDS011;42438;53.174;6.730;2023-06-01T00:26:05;10.23;;;4.88;;
56541;SDS011;42438;53.174;6.730;2023-06-01T00:28:36;15.90;;;5.22;;
56541;SDS011;42438;53.174;6.730;2023-06-01T00:31:06;14.20;;;4.50;;
56541;SDS011;42438;53.174;6.730;2023-06-01T00:33:37;11.55;;;4.82;;
56541;SDS011;42438;53.174;6.730;2023-06-01T00:36:08;10.68;;;4.90;;
56541;SDS011;42438;53.174;6.730;2023-06-01T00:38:38;8.93;;;4.95;;
56541;SDS011;42438;53.174;6.730;2023-06-01T00:41:09;11.95;;;4.68;;
56541;SDS011;42438;53.174;6.730;2023-06-01T00:43:40;11.65;;;4.75;;
56541;SDS011;42438;53.174;6.730;2023-06-01T00:46:11;10.60;;;4.60;;
56541;SDS011;42438;53.174;6.730;2023-06-01T00:48:44;13.15;;;3.85;;
56541;SDS011;42438;53.174;6.730;2023-06-01T00:51:15;12.77;;;4.80;;
56541;SDS011;42438;53.174;6.730;2023-06-01T00:53:45;15.00;;;4.97;;
56541;SDS011;42438;53.174;6.730;2023-06-01T00:56:16;13.10;;;5.05;;
56541;SDS011;42438;53.174;6.730;2023-06-01T00:58:47;12.82;;;5.20;;
56541;SDS011;42438;53.174;6.730;2023-06-01T01:01:19;12.57;;;5.40;;
56541;SDS011;42438;53.174;6.730;2023-06-01T01:03:49;12.00;;;5.38;;
56541;SDS011;42438;53.174;6.730;2023-06-01T01:11:54;13.50;;;5.10;;
56541;SDS011;42438;53.174;6.730;2023-06-01T01:14:33;12.77;;;5.90;;
56541;SDS011;42438;53.174;6.730;2023-06-01T01:17:44;16.77;;;5.65;;
56541;SDS011;42438;53.174;6.730;2023-06-01T01:20:17;11.05;;;4.90;;
56541;SDS011;42438;53.174;6.730;2023-06-01T01:23:11;12.82;;;5.15;;
56541;SDS011;42438;53.174;6.730;2023-06-01T01:26:13;10.25;;;5.35;;
56541;SDS011;42438;53.174;6.730;2023-06-01T01:28:58;9.88;;;5.32;;
56541;SDS011;42438;53.174;6.730;2023-06-01T01:31:31;10.65;;;5.07;;
56541;SDS011;42438;53.174;6.730;2023-06-01T01:34:04;13.25;;;5.40;;
56541;SDS011;42438;53.174;6.730;2023-06-01T01:36:37;12.38;;;5.15;;
56541;SDS011;42438;53.174;6.730;2023-06-01T01:39:08;12.85;;;5.03;;
56541;SDS011;42438;53.174;6.730;2023-06-01T01:41:38;10.52;;;5.13;;
56541;SDS011;42438;53.174;6.730;2023-06-01T01:44:09;13.30;;;5.95;;
56541;SDS011;42438;53.174;6.730;2023-06-01T01:46:54;9.35;;;4.63;;
56541;SDS011;42438;53.174;6.730;2023-06-01T01:49:37;10.07;;;5.03;;
56541;SDS011;42438;53.174;6.730;2023-06-01T01:54:47;14.07;;;5.15;;
56541;SDS011;42438;53.174;6.730;2023-06-01T01:57:20;13.07;;;5.47;;
56541;SDS011;42438;53.174;6.730;2023-06-01T01:59:52;10.00;;;4.80;;
56541;SDS011;42438;53.174;6.730;2023-06-01T02:02:23;8.35;;;4.80;;
56541;SDS011;42438;53.174;6.730;2023-06-01T02:04:54;13.38;;;4.95;;
56541;SDS011;42438;53.174;6.730;2023-06-01T02:07:25;12.30;;;5.35;;
56541;SDS011;42438;53.174;6.730;2023-06-01T02:09:56;9.48;;;4.88;;
56541;SDS011;42438;53.174;6.730;2023-06-01T02:12:26;13.07;;;6.10;;
56541;SDS011;42438;53.174;6.730;2023-06-01T02:14:57;12.45;;;5.35;;
56541;SDS011;42438;53.174;6.730;2023-06-01T02:17:27;12.27;;;6.35;;
56541;SDS011;42438;53.174;6.730;2023-06-01T02:19:58;15.48;;;5.57;;
56541;SDS011;42438;53.174;6.730;2023-06-01T02:22:29;9.93;;;5.20;;
56541;SDS011;42438;53.174;6.730;2023-06-01T02:24:59;11.73;;;5.57;;
56541;SDS011;42438;53.174;6.730;2023-06-01T02:27:30;11.73;;;4.82;;
56541;SDS011;42438;53.174;6.730;2023-06-01T02:30:01;12.20;;;4.93;;
56541;SDS011;42438;53.174;6.730;2023-06-01T02:32:32;7.68;;;3.65;;
56541;SDS011;42438;53.174;6.730;2023-06-01T02:35:03;8.27;;;3.85;;
56541;SDS011;42438;53.174;6.730;2023-06-01T02:37:36;11.35;;;3.67;;
56541;SDS011;42438;53.174;6.730;2023-06-01T02:40:07;9.98;;;3.60;;
56541;SDS011;42438;53.174;6.730;2023-06-01T02:42:41;11.77;;;4.00;;
56541;SDS011;42438;53.174;6.730;2023-06-01T02:45:12;9.48;;;3.72;;
56541;SDS011;42438;53.174;6.730;2023-06-01T02:47:42;9.48;;;4.05;;
56541;SDS011;42438;53.174;6.730;2023-06-01T02:50:14;9.70;;;4.47;;
56541;SDS011;42438;53.174;6.730;2023-06-01T02:52:45;9.15;;;3.80;;
56541;SDS011;42438;53.174;6.730;2023-06-01T02:55:16;9.70;;;3.88;;
56541;SDS011;42438;53.174;6.730;2023-06-01T02:57:46;7.38;;;3.50;;
56541;SDS011;42438;53.174;6.730;2023-06-01T03:00:17;8.65;;;3.35;;
56541;SDS011;42438;53.174;6.730;2023-06-01T03:02:48;8.98;;;3.90;;
56541;SDS011;42438;53.174;6.730;2023-06-01T03:05:18;10.32;;;3.80;;
56541;SDS011;42438;53.174;6.730;2023-06-01T03:07:51;7.72;;;3.40;;
56541;SDS011;42438;53.174;6.730;2023-06-01T03:10:21;11.73;;;4.00;;
56541;SDS011;42438;53.174;6.730;2023-06-01T03:12:52;7.30;;;3.40;;
56541;SDS011;42438;53.174;6.730;2023-06-01T03:15:23;8.15;;;3.58;;
56541;SDS011;42438;53.174;6.730;2023-06-01T03:17:53;8.73;;;3.65;;
56541;SDS011;42438;53.174;6.730;2023-06-01T03:20:24;9.98;;;3.55;;
56541;SDS011;42438;53.174;6.730;2023-06-01T03:22:54;6.78;;;3.97;;
56541;SDS011;42438;53.174;6.730;2023-06-01T03:25:25;11.55;;;4.15;;
56541;SDS011;42438;53.174;6.730;2023-06-01T03:27:56;9.57;;;4.45;;
56541;SDS011;42438;53.174;6.730;2023-06-01T03:30:26;9.13;;;4.60;;
56541;SDS011;42438;53.174;6.730;2023-06-01T03:32:57;8.82;;;3.92;;
56541;SDS011;42438;53.174;6.730;2023-06-01T03:35:28;10.40;;;4.10;;
56541;SDS011;42438;53.174;6.730;2023-06-01T03:37:58;8.45;;;4.57;;
56541;SDS011;42438;53.174;6.730;2023-06-01T03:40:29;13.98;;;5.00;;
56541;SDS011;42438;53.174;6.730;2023-06-01T03:42:59;9.68;;;4.28;;
56541;SDS011;42438;53.174;6.730;2023-06-01T03:45:30;12.80;;;5.00;;
56541;SDS011;42438;53.174;6.730;2023-06-01T03:48:01;9.80;;;4.97;;
56541;SDS011;42438;53.174;6.730;2023-06-01T03:50:32;10.55;;;5.03;;
56541;SDS011;42438;53.174;6.730;2023-06-01T03:53:02;10.75;;;4.60;;
56541;SDS011;42438;53.174;6.730;2023-06-01T03:55:33;11.90;;;4.93;;
56541;SDS011;42438;53.174;6.730;2023-06-01T03:58:04;11.85;;;4.35;;
56541;SDS011;42438;53.174;6.730;2023-06-01T04:00:37;12.53;;;4.47;;
56541;SDS011;42438;53.174;6.730;2023-06-01T04:03:08;12.07;;;5.07;;
56541;SDS011;42438;53.174;6.730;2023-06-01T04:05:39;13.35;;;4.63;;
56541;SDS011;42438;53.174;6.730;2023-06-01T04:08:10;10.75;;;4.60;;
56541;SDS011;42438;53.174;6.730;2023-06-01T04:10:41;13.63;;;4.43;;
56541;SDS011;42438;53.174;6.730;2023-06-01T04:13:11;10.52;;;4.50;;
56541;SDS011;42438;53.174;6.730;2023-06-01T04:15:42;16.25;;;4.90;;
56541;SDS011;42438;53.174;6.730;2023-06-01T04:18:12;12.10;;;4.40;;
56541;SDS011;42438;53.174;6.730;2023-06-01T04:20:43;13.88;;;4.45;;
56541;SDS011;42438;53.174;6.730;2023-06-01T04:23:14;12.25;;;4.53;;
56541;SDS011;42438;53.174;6.730;2023-06-01T04:25:44;14.75;;;5.35;;
56541;SDS011;42438;53.174;6.730;2023-06-01T04:28:15;11.70;;;5.20;;
56541;SDS011;42438;53.174;6.730;2023-06-01T04:30:46;13.25;;;4.63;;
56541;SDS011;42438;53.174;6.730;2023-06-01T04:33:21;14.75;;;5.03;;
56541;SDS011;42438;53.174;6.730;2023-06-01T04:35:52;8.23;;;4.18;;
56541;SDS011;42438;53.174;6.730;2023-06-01T04:38:23;11.32;;;4.78;;
56541;SDS011;42438;53.174;6.730;2023-06-01T04:40:55;9.38;;;4.80;;
56541;SDS011;42438;53.174;6.730;2023-06-01T04:43:25;12.70;;;4.95;;
56541;SDS011;42438;53.174;6.730;2023-06-01T04:45:57;6.97;;;4.03;;
56541;SDS011;42438;53.174;6.730;2023-06-01T04:48:33;9.98;;;4.60;;
56541;SDS011;42438;53.174;6.730;2023-06-01T04:51:04;12.25;;;4.00;;
56541;SDS011;42438;53.174;6.730;2023-06-01T04:53:35;9.73;;;4.05;;
56541;SDS011;42438;53.174;6.730;2023-06-01T04:56:05;10.73;;;4.78;;
56541;SDS011;42438;53.174;6.730;2023-06-01T04:58:36;10.60;;;4.63;;
56541;SDS011;42438;53.174;6.730;2023-06-01T05:01:07;14.13;;;4.82;;
56541;SDS011;42438;53.174;6.730;2023-06-01T05:03:37;9.73;;;4.40;;
56541;SDS011;42438;53.174;6.730;2023-06-01T05:06:08;10.32;;;4.60;;
56541;SDS011;42438;53.174;6.730;2023-06-01T05:08:41;9.65;;;4.47;;
56541;SDS011;42438;53.174;6.730;2023-06-01T05:11:11;10.48;;;4.50;;
56541;SDS011;42438;53.174;6.730;2023-06-01T05:13:42;8.57;;;3.58;;
56541;SDS011;42438;53.174;6.730;2023-06-01T05:16:14;11.10;;;4.28;;
56541;SDS011;42438;53.174;6.730;2023-06-01T05:18:45;10.05;;;3.72;;
56541;SDS011;42438;53.174;6.730;2023-06-01T05:21:15;9.43;;;3.80;;
56541;SDS011;42438;53.174;6.730;2023-06-01T05:23:46;11.88;;;3.38;;
56541;SDS011;42438;53.174;6.730;2023-06-01T05:26:17;7.13;;;3.28;;
56541;SDS011;42438;53.174;6.730;2023-06-01T05:28:47;8.63;;;4.82;;
56541;SDS011;42438;53.174;6.730;2023-06-01T05:31:18;11.45;;;4.30;;
56541;SDS011;42438;53.174;6.730;2023-06-01T05:33:50;10.02;;;4.10;;
56541;SDS011;42438;53.174;6.730;2023-06-01T05:36:21;8.35;;;4.05;;
56541;SDS011;42438;53.174;6.730;2023-06-01T05:38:52;10.25;;;3.60;;
56541;SDS011;42438;53.174;6.730;2023-06-01T05:41:22;8.48;;;3.53;;
56541;SDS011;42438;53.174;6.730;2023-06-01T05:43:53;8.20;;;3.03;;
56541;SDS011;42438;53.174;6.730;2023-06-01T05:46:24;9.65;;;3.03;;
56541;SDS011;42438;53.174;6.730;2023-06-01T05:48:55;7.95;;;2.80;;
56541;SDS011;42438;53.174;6.730;2023-06-01T05:51:26;6.55;;;3.00;;
56541;SDS011;42438;53.174;6.730;2023-06-01T05:53:56;6.93;;;3.10;;
56541;SDS011;42438;53.174;6.730;2023-06-01T05:56:27;6.15;;;3.00;;
56541;SDS011;42438;53.174;6.730;2023-06-01T05:58:58;5.55;;;2.38;;
56541;SDS011;42438;53.174;6.730;2023-06-01T06:01:29;8.25;;;4.00;;
56541;SDS011;42438;53.174;6.730;2023-06-01T06:04:00;5.55;;;3.00;;
56541;SDS011;42438;53.174;6.730;2023-06-01T06:06:30;6.32;;;2.28;;
56541;SDS011;42438;53.174;6.730;2023-06-01T06:09:01;5.70;;;2.80;;
56541;SDS011;42438;53.174;6.730;2023-06-01T06:11:34;6.30;;;2.55;;
56541;SDS011;42438;53.174;6.730;2023-06-01T06:14:04;6.28;;;2.58;;
56541;SDS011;42438;53.174;6.730;2023-06-01T06:16:35;6.72;;;2.33;;
56541;SDS011;42438;53.174;6.730;2023-06-01T06:19:06;7.65;;;3.20;;
56541;SDS011;42438;53.174;6.730;2023-06-01T06:21:37;9.68;;;3.30;;
56541;SDS011;42438;53.174;6.730;2023-06-01T06:24:08;8.30;;;3.05;;
56541;SDS011;42438;53.174;6.730;2023-06-01T06:26:38;6.47;;;2.50;;
56541;SDS011;42438;53.174;6.730;2023-06-01T06:29:09;6.65;;;2.50;;
56541;SDS011;42438;53.174;6.730;2023-06-01T06:31:40;6.68;;;2.22;;
56541;SDS011;42438;53.174;6.730;2023-06-01T06:34:13;3.97;;;2.10;;
56541;SDS011;42438;53.174;6.730;2023-06-01T06:36:43;5.60;;;2.10;;
56541;SDS011;42438;53.174;6.730;2023-06-01T06:39:14;6.90;;;2.05;;
56541;SDS011;42438;53.174;6.730;2023-06-01T06:41:45;3.85;;;1.70;;
56541;SDS011;42438;53.174;6.730;2023-06-01T06:44:16;3.10;;;1.65;;
56541;SDS011;42438;53.174;6.730;2023-06-01T06:46:46;4.22;;;1.90;;
56541;SDS011;42438;53.174;6.730;2023-06-01T06:49:17;5.68;;;2.08;;
56541;SDS011;42438;53.174;6.730;2023-06-01T06:51:48;5.70;;;1.90;;
56541;SDS011;42438;53.174;6.730;2023-06-01T06:54:19;6.80;;;2.13;;
56541;SDS011;42438;53.174;6.730;2023-06-01T06:56:49;5.07;;;2.05;;
56541;SDS011;42438;53.174;6.730;2023-06-01T06:59:20;3.30;;;1.92;;
56541;SDS011;42438;53.174;6.730;2023-06-01T07:01:51;6.47;;;2.30;;
56541;SDS011;42438;53.174;6.730;2023-06-01T07:04:21;6.18;;;1.95;;
56541;SDS011;42438;53.174;6.730;2023-06-01T07:06:52;6.00;;;1.67;;
56541;SDS011;42438;53.174;6.730;2023-06-01T07:09:23;5.00;;;2.10;;
56541;SDS011;42438;53.174;6.730;2023-06-01T07:11:54;3.88;;;1.95;;
56541;SDS011;42438;53.174;6.730;2023-06-01T07:14:24;6.22;;;2.00;;
56541;SDS011;42438;53.174;6.730;2023-06-01T07:16:55;3.33;;;1.95;;
56541;SDS011;42438;53.174;6.730;2023-06-01T07:19:25;6.32;;;2.60;;
56541;SDS011;42438;53.174;6.730;2023-06-01T07:22:02;5.63;;;2.78;;
56541;SDS011;42438;53.174;6.730;2023-06-01T07:24:33;5.47;;;2.90;;
56541;SDS011;42438;53.174;6.730;2023-06-01T07:27:04;6.22;;;2.53;;
56541;SDS011;42438;53.174;6.730;2023-06-01T07:29:35;7.55;;;2.60;;
56541;SDS011;42438;53.174;6.730;2023-06-01T07:32:06;6.95;;;3.03;;
56541;SDS011;42438;53.174;6.730;2023-06-01T07:34:37;5.70;;;2.63;;
56541;SDS011;42438;53.174;6.730;2023-06-01T07:37:07;8.63;;;2.30;;
56541;SDS011;42438;53.174;6.730;2023-06-01T07:39:39;5.45;;;2.42;;
56541;SDS011;42438;53.174;6.730;2023-06-01T07:42:09;5.97;;;2.25;;
56541;SDS011;42438;53.174;6.730;2023-06-01T07:44:40;4.78;;;2.40;;
56541;SDS011;42438;53.174;6.730;2023-06-01T07:47:11;10.43;;;3.42;;
56541;SDS011;42438;53.174;6.730;2023-06-01T07:49:42;6.28;;;2.60;;
56541;SDS011;42438;53.174;6.730;2023-06-01T07:52:13;7.28;;;2.95;;
56541;SDS011;42438;53.174;6.730;2023-06-01T07:54:43;6.07;;;2.83;;
56541;SDS011;42438;53.174;6.730;2023-06-01T07:57:14;6.05;;;2.80;;
56541;SDS011;42438;53.174;6.730;2023-06-01T07:59:46;6.88;;;3.03;;
56541;SDS011;42438;53.174;6.730;2023-06-01T08:02:17;8.30;;;2.75;;
56541;SDS011;42438;53.174;6.730;2023-06-01T08:04:47;6.63;;;3.00;;
56541;SDS011;42438;53.174;6.730;2023-06-01T08:07:19;9.77;;;3.28;;
56541;SDS011;42438;53.174;6.730;2023-06-01T08:09:49;5.82;;;2.47;;
56541;SDS011;42438;53.174;6.730;2023-06-01T08:12:22;7.73;;;2.33;;
56541;SDS011;42438;53.174;6.730;2023-06-01T08:14:52;6.35;;;2.40;;
56541;SDS011;42438;53.174;6.730;2023-06-01T08:17:23;4.05;;;2.22;;
56541;SDS011;42438;53.174;6.730;2023-06-01T08:19:54;7.68;;;2.75;;
56541;SDS011;42438;53.174;6.730;2023-06-01T08:22:26;5.82;;;2.65;;
56541;SDS011;42438;53.174;6.730;2023-06-01T08:24:58;6.97;;;3.15;;
56541;SDS011;42438;53.174;6.730;2023-06-01T08:27:29;6.30;;;2.80;;
56541;SDS011;42438;53.174;6.730;2023-06-01T08:30:00;6.28;;;2.88;;
56541;SDS011;42438;53.174;6.730;2023-06-01T08:32:30;8.30;;;3.30;;
56541;SDS011;42438;53.174;6.730;2023-06-01T08:35:01;6.63;;;2.63;;
56541;SDS011;42438;53.174;6.730;2023-06-01T08:37:32;6.60;;;3.22;;
56541;SDS011;42438;53.174;6.730;2023-06-01T08:40:03;7.20;;;2.80;;
56541;SDS011;42438;53.174;6.730;2023-06-01T08:45:15;8.15;;;3.53;;
56541;SDS011;42438;53.174;6.730;2023-06-01T08:47:47;9.20;;;3.72;;
56541;SDS011;42438;53.174;6.730;2023-06-01T08:50:21;7.22;;;3.28;;
56541;SDS011;42438;53.174;6.730;2023-06-01T08:52:52;8.70;;;3.17;;
56541;SDS011;42438;53.174;6.730;2023-06-01T08:55:25;12.10;;;3.90;;
56541;SDS011;42438;53.174;6.730;2023-06-01T08:57:56;10.95;;;3.30;;
56541;SDS011;42438;53.174;6.730;2023-06-01T09:00:27;9.85;;;4.35;;
56541;SDS011;42438;53.174;6.730;2023-06-01T09:02:59;9.77;;;3.30;;
56541;SDS011;42438;53.174;6.730;2023-06-01T09:05:30;9.02;;;3.08;;
56541;SDS011;42438;53.174;6.730;2023-06-01T09:08:02;9.40;;;3.33;;
56541;SDS011;42438;53.174;6.730;2023-06-01T09:10:32;10.15;;;3.55;;
56541;SDS011;42438;53.174;6.730;2023-06-01T09:13:03;11.77;;;3.75;;
56541;SDS011;42438;53.174;6.730;2023-06-01T09:15:34;8.60;;;3.33;;
56541;SDS011;42438;53.174;6.730;2023-06-01T09:18:05;7.90;;;3.22;;
56541;SDS011;42438;53.174;6.730;2023-06-01T09:20:37;9.85;;;3.47;;
56541;SDS011;42438;53.174;6.730;2023-06-01T09:23:09;14.10;;;3.08;;
56541;SDS011;42438;53.174;6.730;2023-06-01T09:25:40;5.97;;;3.03;;
56541;SDS011;42438;53.174;6.730;2023-06-01T09:28:10;10.27;;;2.92;;
56541;SDS011;42438;53.174;6.730;2023-06-01T09:30:42;7.70;;;3.15;;
56541;SDS011;42438;53.174;6.730;2023-06-01T09:35:47;8.98;;;3.22;;
56541;SDS011;42438;53.174;6.730;2023-06-01T09:38:20;9.57;;;3.03;;
56541;SDS011;42438;53.174;6.730;2023-06-01T09:41:02;11.43;;;3.38;;
56541;SDS011;42438;53.174;6.730;2023-06-01T09:43:33;8.73;;;3.08;;
56541;SDS011;42438;53.174;6.730;2023-06-01T09:46:08;9.15;;;3.03;;
56541;SDS011;42438;53.174;6.730;2023-06-01T09:48:40;7.93;;;3.25;;
56541;SDS011;42438;53.174;6.730;2023-06-01T09:51:23;9.85;;;3.30;;
56541;SDS011;42438;53.174;6.730;2023-06-01T09:53:59;10.05;;;3.17;;
56541;SDS011;42438;53.174;6.730;2023-06-01T09:56:42;9.38;;;3.13;;
56541;SDS011;42438;53.174;6.730;2023-06-01T09:59:14;7.15;;;3.20;;
56541;SDS011;42438;53.174;6.730;2023-06-01T10:01:46;6.90;;;2.35;;
56541;SDS011;42438;53.174;6.730;2023-06-01T10:04:28;6.97;;;2.90;;
56541;SDS011;42438;53.174;6.730;2023-06-01T10:06:59;7.60;;;3.33;;
56541;SDS011;42438;53.174;6.730;2023-06-01T10:09:30;7.65;;;2.88;;
56541;SDS011;42438;53.174;6.730;2023-06-01T10:12:01;7.22;;;3.55;;
56541;SDS011;42438;53.174;6.730;2023-06-01T10:14:33;8.52;;;3.55;;
56541;SDS011;42438;53.174;6.730;2023-06-01T10:17:06;8.20;;;3.17;;
56541;SDS011;42438;53.174;6.730;2023-06-01T10:19:37;7.97;;;3.13;;
56541;SDS011;42438;53.174;6.730;2023-06-01T10:22:08;8.23;;;3.75;;
56541;SDS011;42438;53.174;6.730;2023-06-01T10:27:33;9.23;;;3.20;;
56541;SDS011;42438;53.174;6.730;2023-06-01T10:30:09;8.45;;;2.50;;
56541;SDS011;42438;53.174;6.730;2023-06-01T10:32:40;8.48;;;2.63;;
56541;SDS011;42438;53.174;6.730;2023-06-01T10:35:51;9.48;;;3.40;;
56541;SDS011;42438;53.174;6.730;2023-06-01T10:40:43;7.35;;;3.40;;
56541;SDS011;42438;53.174;6.730;2023-06-01T10:49:05;12.32;;;3.28;;
56541;SDS011;42438;53.174;6.730;2023-06-01T10:51:36;9.93;;;3.67;;
56541;SDS011;42438;53.174;6.730;2023-06-01T10:54:23;8.50;;;3.00;;
56541;SDS011;42438;53.174;6.730;2023-06-01T11:05:37;10.48;;;3.40;;
56541;SDS011;42438;53.174;6.730;2023-06-01T11:13:23;8.40;;;3.15;;
56541;SDS011;42438;53.174;6.730;2023-06-01T11:18:49;13.15;;;3.20;;
56541;SDS011;42438;53.174;6.730;2023-06-01T11:24:06;9.15;;;3.33;;
56541;SDS011;42438;53.174;6.730;2023-06-01T11:26:42;8.93;;;3.58;;
56541;SDS011;42438;53.174;6.730;2023-06-01T11:29:17;12.27;;;3.67;;
56541;SDS011;42438;53.174;6.730;2023-06-01T11:31:54;10.57;;;3.20;;
56541;SDS011;42438;53.174;6.730;2023-06-01T11:37:12;10.60;;;2.90;;
56541;SDS011;42438;53.174;6.730;2023-06-01T11:39:47;6.45;;;2.90;;
56541;SDS011;42438;53.174;6.730;2023-06-01T11:42:19;10.13;;;3.00;;
56541;SDS011;42438;53.174;6.730;2023-06-01T11:44:58;7.53;;;3.35;;
56541;SDS011;42438;53.174;6.730;2023-06-01T11:47:29;6.93;;;3.00;;
56541;SDS011;42438;53.174;6.730;2023-06-01T11:50:00;5.32;;;2.88;;
56541;SDS011;42438;53.174;6.730;2023-06-01T11:52:31;10.90;;;3.25;;
56541;SDS011;42438;53.174;6.730;2023-06-01T11:55:02;7.85;;;3.05;;
56541;SDS011;42438;53.174;6.730;2023-06-01T11:57:33;8.20;;;3.33;;
56541;SDS011;42438;53.174;6.730;2023-06-01T12:00:04;7.43;;;3.50;;
56541;SDS011;42438;53.174;6.730;2023-06-01T12:02:43;9.00;;;3.35;;
56541;SDS011;42438;53.174;6.730;2023-06-01T12:05:14;8.10;;;3.40;;
56541;SDS011;42438;53.174;6.730;2023-06-01T12:07:48;10.23;;;3.28;;
56541;SDS011;42438;53.174;6.730;2023-06-01T12:10:24;6.28;;;2.75;;
56541;SDS011;42438;53.174;6.730;2023-06-01T12:12:55;6.97;;;3.10;;
56541;SDS011;42438;53.174;6.730;2023-06-01T12:15:25;9.23;;;3.50;;
56541;SDS011;42438;53.174;6.730;2023-06-01T12:17:56;5.82;;;3.17;;
56541;SDS011;42438;53.174;6.730;2023-06-01T12:20:34;7.82;;;3.13;;
56541;SDS011;42438;53.174;6.730;2023-06-01T12:23:16;6.85;;;3.30;;
56541;SDS011;42438;53.174;6.730;2023-06-01T12:28:29;9.93;;;3.35;;
56541;SDS011;42438;53.174;6.730;2023-06-01T12:31:24;6.18;;;3.58;;
56541;SDS011;42438;53.174;6.730;2023-06-01T12:33:55;8.63;;;3.60;;
56541;SDS011;42438;53.174;6.730;2023-06-01T12:36:33;7.97;;;4.30;;
56541;SDS011;42438;53.174;6.730;2023-06-01T12:39:04;7.47;;;3.88;;
56541;SDS011;42438;53.174;6.730;2023-06-01T12:41:35;9.90;;;3.47;;
56541;SDS011;42438;53.174;6.730;2023-06-01T12:44:06;10.40;;;3.90;;
56541;SDS011;42438;53.174;6.730;2023-06-01T12:46:37;8.23;;;3.95;;
56541;SDS011;42438;53.174;6.730;2023-06-01T12:49:12;9.27;;;3.70;;
56541;SDS011;42438;53.174;6.730;2023-06-01T12:51:44;7.55;;;3.50;;
56541;SDS011;42438;53.174;6.730;2023-06-01T12:54:15;6.38;;;3.50;;
56541;SDS011;42438;53.174;6.730;2023-06-01T12:56:47;10.43;;;3.63;;
56541;SDS011;42438;53.174;6.730;2023-06-01T12:59:19;7.07;;;3.83;;
56541;SDS011;42438;53.174;6.730;2023-06-01T13:01:49;10.23;;;4.28;;
56541;SDS011;42438;53.174;6.730;2023-06-01T13:04:20;8.90;;;3.88;;
56541;SDS011;42438;53.174;6.730;2023-06-01T13:06:51;9.05;;;4.10;;
56541;SDS011;42438;53.174;6.730;2023-06-01T13:09:21;9.13;;;3.90;;
56541;SDS011;42438;53.174;6.730;2023-06-01T13:11:52;7.13;;;4.10;;
56541;SDS011;42438;53.174;6.730;2023-06-01T13:14:23;6.95;;;3.80;;
56541;SDS011;42438;53.174;6.730;2023-06-01T13:16:54;10.02;;;3.50;;
56541;SDS011;42438;53.174;6.730;2023-06-01T13:19:25;10.30;;;3.60;;
56541;SDS011;42438;53.174;6.730;2023-06-01T13:21:55;8.98;;;3.28;;
56541;SDS011;42438;53.174;6.730;2023-06-01T13:24:26;8.55;;;3.38;;
56541;SDS011;42438;53.174;6.730;2023-06-01T13:26:57;8.00;;;3.63;;
56541;SDS011;42438;53.174;6.730;2023-06-01T13:29:28;9.60;;;3.55;;
56541;SDS011;42438;53.174;6.730;2023-06-01T13:31:59;11.73;;;3.65;;
56541;SDS011;42438;53.174;6.730;2023-06-01T13:34:29;7.05;;;2.90;;
56541;SDS011;42438;53.174;6.730;2023-06-01T13:37:00;7.93;;;3.47;;
56541;SDS011;42438;53.174;6.730;2023-06-01T13:39:31;8.48;;;3.22;;
56541;SDS011;42438;53.174;6.730;2023-06-01T13:42:01;6.38;;;2.60;;
56541;SDS011;42438;53.174;6.730;2023-06-01T13:44:33;8.82;;;3.10;;
56541;SDS011;42438;53.174;6.730;2023-06-01T13:47:03;7.45;;;2.97;;
56541;SDS011;42438;53.174;6.730;2023-06-01T13:49:34;5.82;;;2.88;;
56541;SDS011;42438;53.174;6.730;2023-06-01T13:52:05;7.00;;;2.88;;
56541;SDS011;42438;53.174;6.730;2023-06-01T13:54:36;7.10;;;3.00;;
56541;SDS011;42438;53.174;6.730;2023-06-01T13:57:07;10.25;;;3.25;;
56541;SDS011;42438;53.174;6.730;2023-06-01T13:59:37;7.43;;;2.50;;
56541;SDS011;42438;53.174;6.730;2023-06-01T14:02:08;7.25;;;2.38;;
56541;SDS011;42438;53.174;6.730;2023-06-01T14:04:39;6.93;;;2.50;;
56541;SDS011;42438;53.174;6.730;2023-06-01T14:07:10;7.35;;;2.40;;
56541;SDS011;42438;53.174;6.730;2023-06-01T14:09:40;8.68;;;2.53;;
56541;SDS011;42438;53.174;6.730;2023-06-01T14:12:11;8.02;;;2.60;;
56541;SDS011;42438;53.174;6.730;2023-06-01T14:14:41;6.75;;;2.15;;
56541;SDS011;42438;53.174;6.730;2023-06-01T14:17:12;4.40;;;2.75;;
56541;SDS011;42438;53.174;6.730;2023-06-01T14:19:43;6.72;;;3.03;;
56541;SDS011;42438;53.174;6.730;2023-06-01T14:22:13;4.85;;;2.50;;
56541;SDS011;42438;53.174;6.730;2023-06-01T14:24:44;7.63;;;2.83;;
56541;SDS011;42438;53.174;6.730;2023-06-01T14:27:15;6.30;;;2.10;;
56541;SDS011;42438;53.174;6.730;2023-06-01T14:29:45;4.70;;;2.33;;
56541;SDS011;42438;53.174;6.730;2023-06-01T14:32:16;6.65;;;2.30;;
56541;SDS011;42438;53.174;6.730;2023-06-01T14:34:47;4.05;;;2.13;;
56541;SDS011;42438;53.174;6.730;2023-06-01T14:37:17;4.43;;;2.22;;
56541;SDS011;42438;53.174;6.730;2023-06-01T14:39:48;5.90;;;2.45;;
56541;SDS011;42438;53.174;6.730;2023-06-01T14:42:19;6.82;;;2.33;;
56541;SDS011;42438;53.174;6.730;2023-06-01T14:44:50;5.45;;;1.83;;
56541;SDS011;42438;53.174;6.730;2023-06-01T14:47:21;5.65;;;1.90;;
56541;SDS011;42438;53.174;6.730;2023-06-01T14:49:51;4.03;;;2.10;;
56541;SDS011;42438;53.174;6.730;2023-06-01T14:52:22;4.78;;;2.10;;
56541;SDS011;42438;53.174;6.730;2023-06-01T14:54:52;5.22;;;1.88;;
56541;SDS011;42438;53.174;6.730;2023-06-01T14:57:23;6.65;;;2.17;;
56541;SDS011;42438;53.174;6.730;2023-06-01T14:59:54;5.72;;;2.20;;
56541;SDS011;42438;53.174;6.730;2023-06-01T15:02:25;5.00;;;2.08;;
56541;SDS011;42438;53.174;6.730;2023-06-01T15:04:55;5.00;;;2.30;;
56541;SDS011;42438;53.174;6.730;2023-06-01T15:07:26;5.05;;;2.70;;
56541;SDS011;42438;53.174;6.730;2023-06-01T15:09:56;8.10;;;2.55;;
56541;SDS011;42438;53.174;6.730;2023-06-01T15:12:27;6.88;;;1.95;;
56541;SDS011;42438;53.174;6.730;2023-06-01T15:14:58;5.22;;;2.33;;
56541;SDS011;42438;53.174;6.730;2023-06-01T15:17:28;4.85;;;2.20;;
56541;SDS011;42438;53.174;6.730;2023-06-01T15:19:59;6.55;;;2.30;;
56541;SDS011;42438;53.174;6.730;2023-06-01T15:22:30;8.75;;;2.45;;
56541;SDS011;42438;53.174;6.730;2023-06-01T15:25:00;5.85;;;2.72;;
56541;SDS011;42438;53.174;6.730;2023-06-01T15:27:31;7.20;;;2.88;;
56541;SDS011;42438;53.174;6.730;2023-06-01T15:30:02;7.25;;;1.90;;
56541;SDS011;42438;53.174;6.730;2023-06-01T15:32:33;6.30;;;2.40;;
56541;SDS011;42438;53.174;6.730;2023-06-01T15:35:04;5.80;;;2.38;;
56541;SDS011;42438;53.174;6.730;2023-06-01T15:37:35;3.13;;;1.98;;
56541;SDS011;42438;53.174;6.730;2023-06-01T15:40:11;4.45;;;1.83;;
56541;SDS011;42438;53.174;6.730;2023-06-01T15:42:43;7.60;;;2.67;;
56541;SDS011;42438;53.174;6.730;2023-06-01T15:45:14;4.97;;;2.65;;
56541;SDS011;42438;53.174;6.730;2023-06-01T15:47:44;8.07;;;2.15;;
56541;SDS011;42438;53.174;6.730;2023-06-01T15:50:15;4.57;;;1.80;;
56541;SDS011;42438;53.174;6.730;2023-06-01T15:52:46;8.43;;;2.28;;
56541;SDS011;42438;53.174;6.730;2023-06-01T15:55:16;4.55;;;2.00;;
56541;SDS011;42438;53.174;6.730;2023-06-01T15:57:47;5.10;;;2.08;;
56541;SDS011;42438;53.174;6.730;2023-06-01T16:00:18;5.20;;;2.25;;